Portada
METAR-TAF:

METAR-TAF

Aeropuertos :

Bojnourd, Irán

latitud: 37-28N, longitud: 057-20E, altitud: 1074 m

Observación

El informe se hizo hace 1 hora y 0 minutos, a las 20:00 UTC
Viento 8 kt del oeste-noroeste
Temperatura 7°C
Humedad 93%
Presión 1017 hPa
Visibilidad 10 km o más
Cielo nuboso a una altura de 1000 ft
Nubes dispersas a una altura de 3000 ft
Escasas nubes a una altura de 3500 ft, Cumulonimbus.
Cielo cubierto a una altura de 6000 ft

METAR: OIMN 202000Z 29008KT 9999 BKN010 SCT030 FEW035CB OVC060 07/06 Q1017

Hora: 01:30 (21:00 UTC)


TAF: falta

Observaciones y pronósticos meteorológicos de más de 4000 aeropuertos (mensajes METAR y TAF).

Los puntos amarillos y rojos representan las estaciones disponibles.

Ponga el ratón en el punto deseado para ver el nombre de la estación.

Haga clic para ver las observaciones y los pronósticos meteorológicos.

Para cambiar el mapa : haga clic en los botones verdes con una cruz de color negro para hacer un zoom, en el botón verde con un guión para alejar o en las flechas verdes para mapas adyacentes.


METAR-TAF: